createdAt,value
2022-11-16T00:00:06.301Z,7.30
2022-11-16T00:02:34.093Z,7.40
2022-11-16T00:05:03.328Z,7.50
2022-11-16T00:07:32.584Z,7.50
2022-11-16T00:10:04.081Z,7.50
2022-11-16T00:12:30.776Z,7.50
2022-11-16T00:14:57.493Z,7.40
2022-11-16T00:17:26.302Z,7.40
2022-11-16T00:19:55.135Z,7.30
2022-11-16T00:22:26.767Z,7.30
2022-11-16T00:24:56.041Z,7.30
2022-11-16T00:27:25.269Z,7.30
2022-11-16T00:29:51.988Z,7.30
2022-11-16T00:32:21.074Z,7.30
2022-11-16T00:34:47.875Z,7.40
2022-11-16T00:37:14.579Z,7.30
2022-11-16T00:39:41.274Z,7.40
2022-11-16T00:42:12.550Z,7.30
2022-11-16T00:44:41.754Z,7.30
2022-11-16T00:47:08.490Z,7.20
2022-11-16T00:49:35.218Z,7.20
2022-11-16T00:52:04.278Z,7.20
2022-11-16T00:54:31.037Z,7.10
2022-11-16T00:56:58.199Z,7.10
2022-11-16T00:59:25.920Z,7.10
2022-11-16T01:01:56.516Z,7.10
2022-11-16T01:04:23.257Z,7.00
2022-11-16T01:06:50.056Z,7.10
2022-11-16T01:09:19.306Z,7.10
2022-11-16T01:12:06.389Z,7.10
2022-11-16T01:14:36.096Z,7.10
2022-11-16T01:17:02.918Z,7.20
2022-11-16T01:19:30.080Z,7.20
2022-11-16T01:22:00.230Z,7.20
2022-11-16T01:24:28.162Z,7.20
2022-11-16T01:26:58.266Z,7.20
2022-11-16T01:29:32.309Z,7.20
2022-11-16T01:32:01.307Z,7.20
2022-11-16T01:34:31.139Z,7.20
2022-11-16T01:37:05.046Z,7.30
2022-11-16T01:39:35.415Z,7.30
2022-11-16T01:42:04.833Z,7.30
2022-11-16T01:44:31.567Z,7.30
2022-11-16T01:47:09.769Z,7.20
2022-11-16T01:49:39.390Z,7.30
2022-11-16T01:52:11.580Z,7.30
2022-11-16T01:54:41.659Z,7.40
2022-11-16T01:57:09.639Z,7.30
2022-11-16T01:59:40.303Z,7.30
2022-11-16T02:02:13.390Z,7.30
2022-11-16T02:04:43.173Z,7.20
2022-11-16T07:58:35.885Z,7.50
2022-11-16T08:01:05.028Z,7.50
2022-11-16T08:03:33.752Z,7.50
2022-11-16T08:06:02.143Z,7.50
2022-11-16T08:08:32.841Z,7.60
2022-11-16T08:11:00.940Z,7.60
2022-11-16T08:13:28.225Z,7.60
2022-11-16T08:15:59.598Z,7.60
2022-11-16T08:18:26.540Z,7.60
2022-11-16T08:20:53.325Z,7.60
2022-11-16T08:23:20.280Z,7.60
2022-11-16T08:25:47.816Z,7.50
2022-11-16T08:28:14.638Z,7.50
2022-11-16T08:30:42.662Z,7.50
2022-11-16T08:33:10.077Z,7.60
2022-11-16T08:35:40.146Z,7.50
2022-11-16T08:38:07.116Z,7.50
2022-11-16T08:40:35.447Z,7.50
2022-11-16T08:43:02.242Z,7.50
2022-11-16T08:45:34.207Z,7.60
2022-11-16T08:48:04.094Z,7.60
2022-11-16T08:50:44.245Z,7.60
2022-11-16T08:53:20.277Z,7.50
2022-11-16T08:55:51.817Z,7.50
2022-11-16T08:58:18.782Z,7.50
2022-11-16T09:00:45.548Z,7.50
2022-11-16T09:03:12.349Z,7.50
2022-11-16T09:05:39.125Z,7.50
2022-11-16T09:08:05.921Z,7.50
2022-11-16T09:10:32.814Z,7.50
2022-11-16T09:12:59.628Z,7.50
2022-11-16T09:15:28.874Z,7.50
2022-11-16T09:17:55.736Z,7.50
2022-11-16T09:20:22.446Z,7.50
2022-11-16T09:22:51.576Z,7.50
2022-11-16T09:25:19.133Z,7.50
2022-11-16T09:27:45.814Z,7.50
2022-11-16T09:30:12.664Z,7.50
2022-11-16T09:32:44.424Z,7.50
2022-11-16T09:35:11.448Z,7.50
2022-11-16T09:37:38.199Z,7.50
2022-11-16T09:40:05.201Z,7.60
2022-11-16T09:42:47.051Z,7.60
2022-11-16T09:45:31.254Z,7.60
2022-11-16T09:48:02.815Z,7.60
2022-11-16T09:50:48.376Z,7.60
2022-11-16T09:53:34.289Z,7.60
2022-11-16T09:56:05.665Z,7.60
2022-11-16T09:58:38.545Z,7.60
2022-11-16T10:01:10.140Z,7.70
2022-11-16T10:03:41.110Z,7.70
2022-11-16T10:06:13.366Z,7.70
2022-11-16T10:08:45.006Z,7.70
2022-11-16T10:11:24.152Z,7.70
2022-11-16T10:14:03.738Z,7.70
2022-11-16T10:16:45.929Z,7.70
2022-11-16T10:19:22.002Z,7.60
2022-11-16T10:21:54.816Z,7.60
2022-11-16T10:24:27.578Z,7.60
2022-11-16T10:26:59.455Z,7.60
2022-11-16T10:29:30.232Z,7.60
2022-11-16T10:32:03.174Z,7.50
2022-11-16T10:34:36.520Z,7.50
2022-11-16T10:37:04.588Z,7.50
2022-11-16T10:39:32.212Z,7.50
2022-11-16T10:42:07.133Z,7.50
2022-11-16T10:44:37.742Z,7.40
2022-11-16T10:47:05.955Z,7.40
2022-11-16T10:49:36.977Z,7.40
2022-11-16T10:52:06.209Z,7.40
2022-11-16T10:54:38.830Z,7.40
2022-11-16T10:57:14.100Z,7.40
2022-11-16T10:59:43.392Z,7.40
2022-11-16T11:02:28.156Z,7.40
2022-11-16T11:05:05.755Z,7.40
2022-11-16T11:07:32.631Z,7.50
2022-11-16T11:09:59.480Z,7.40
2022-11-16T11:12:38.851Z,7.50
2022-11-16T11:15:05.990Z,7.50
2022-11-16T11:17:36.009Z,7.50
2022-11-16T11:20:07.348Z,7.50
2022-11-16T11:22:42.776Z,7.50
2022-11-16T11:25:20.544Z,7.50
2022-11-16T11:27:47.473Z,7.40
2022-11-16T11:30:21.143Z,7.50
2022-11-16T11:32:48.494Z,7.50
2022-11-16T11:35:22.947Z,7.50
2022-11-16T11:37:51.782Z,7.50
2022-11-16T11:40:20.979Z,7.40
2022-11-16T11:43:01.180Z,7.50
2022-11-16T11:45:27.899Z,7.40
2022-11-16T11:48:04.117Z,7.40
2022-11-16T11:50:37.048Z,7.40
2022-11-16T11:53:22.665Z,7.40
2022-11-16T11:55:55.934Z,7.40
2022-11-16T11:58:26.163Z,7.50
2022-11-16T12:00:56.054Z,7.50
2022-11-16T12:03:22.862Z,7.50
2022-11-16T12:05:52.073Z,7.50
2022-11-16T12:08:21.884Z,7.50
2022-11-16T12:11:03.700Z,7.50
2022-11-16T12:13:33.946Z,7.50
2022-11-16T12:16:01.022Z,7.50
2022-11-16T12:18:35.953Z,7.50
2022-11-16T12:21:13.761Z,7.50
2022-11-16T12:23:40.499Z,7.60
2022-11-16T12:26:10.057Z,7.60
2022-11-16T12:28:36.741Z,7.50
2022-11-16T12:31:15.752Z,7.50
2022-11-16T12:34:00.949Z,7.50
2022-11-16T12:36:30.754Z,7.50
2022-11-16T12:39:04.615Z,7.60
2022-11-16T12:41:49.393Z,7.50
2022-11-16T12:44:21.857Z,7.60
2022-11-16T12:46:48.597Z,7.60
2022-11-16T12:49:29.787Z,7.70
2022-11-16T12:52:02.540Z,7.70
2022-11-16T12:55:18.953Z,7.60
2022-11-16T12:57:43.354Z,7.60
2022-11-16T13:00:12.298Z,7.60
2022-11-16T13:02:58.170Z,7.50
2022-11-16T13:05:28.965Z,7.50
2022-11-16T13:07:55.929Z,7.50
2022-11-16T13:10:24.681Z,7.50
2022-11-16T13:13:15.366Z,7.50
2022-11-16T13:15:43.271Z,7.50
2022-11-16T13:18:12.696Z,7.50
2022-11-16T13:20:39.942Z,7.60
2022-11-16T13:23:29.796Z,7.60
2022-11-16T13:26:02.130Z,7.60
2022-11-16T13:28:33.649Z,7.60
2022-11-16T13:31:07.565Z,7.70
2022-11-16T13:33:50.730Z,7.70
2022-11-16T13:36:43.264Z,7.70
2022-11-16T13:39:18.711Z,7.70
2022-11-16T13:41:50.279Z,7.70
2022-11-16T13:44:18.786Z,7.70
2022-11-16T13:46:56.222Z,7.80
2022-11-16T13:49:25.796Z,7.80
2022-11-16T13:51:54.608Z,7.80
2022-11-16T13:54:45.046Z,7.80
2022-11-16T13:57:38.507Z,7.80
2022-11-16T14:00:10.705Z,7.70
2022-11-16T14:02:41.432Z,7.80
2022-11-16T14:05:11.558Z,7.80
2022-11-16T14:07:47.418Z,7.80
2022-11-16T14:10:35.118Z,7.80
2022-11-16T14:13:05.508Z,7.80
2022-11-16T14:15:38.728Z,7.80
2022-11-16T14:18:09.239Z,7.80
2022-11-16T14:20:45.227Z,7.80
2022-11-16T14:23:25.815Z,7.80
2022-11-16T14:26:18.827Z,7.80
2022-11-16T14:29:03.986Z,7.80
2022-11-16T14:31:45.328Z,7.80
2022-11-16T14:34:16.563Z,7.80
2022-11-16T14:36:49.422Z,7.80
2022-11-16T14:39:28.471Z,7.80
2022-11-16T14:41:57.552Z,7.80
2022-11-16T14:44:26.396Z,7.80
2022-11-16T14:46:55.555Z,7.70
2022-11-16T14:49:25.999Z,7.80
2022-11-16T14:51:57.045Z,7.70
2022-11-16T14:54:36.732Z,7.70
2022-11-16T14:57:04.932Z,7.70
2022-11-16T14:59:34.121Z,7.70
2022-11-16T15:02:21.374Z,7.70
2022-11-16T15:04:51.084Z,7.70
2022-11-16T15:07:22.976Z,7.70
2022-11-16T15:09:54.451Z,7.70
2022-11-16T15:12:43.079Z,7.70
2022-11-16T15:15:13.096Z,7.70
2022-11-16T15:17:40.831Z,7.70
2022-11-16T15:20:13.390Z,7.70
2022-11-16T15:22:47.536Z,7.70
2022-11-16T15:25:26.661Z,7.70
2022-11-16T15:27:54.141Z,7.70
2022-11-16T15:30:25.981Z,7.70
2022-11-16T15:32:53.075Z,7.70
2022-11-16T15:35:24.818Z,7.60
2022-11-16T15:38:10.475Z,7.60
2022-11-16T15:40:37.600Z,7.60
2022-11-16T15:43:07.218Z,7.60
2022-11-16T15:45:34.180Z,7.60
2022-11-16T15:48:01.761Z,7.60
2022-11-16T15:50:28.679Z,7.50
2022-11-16T15:52:55.967Z,7.50
2022-11-16T15:55:23.996Z,7.60
2022-11-16T15:58:11.018Z,7.60
2022-11-16T16:00:38.035Z,7.50
2022-11-16T16:03:07.289Z,7.50
2022-11-16T16:05:35.359Z,7.50
2022-11-16T16:08:03.193Z,7.50
2022-11-16T16:10:30.011Z,7.40
2022-11-16T16:12:57.995Z,7.30
2022-11-16T16:15:29.779Z,7.40
2022-11-16T16:17:58.188Z,7.40
2022-11-16T16:20:25.911Z,7.40
2022-11-16T16:22:52.667Z,7.50
2022-11-16T16:25:30.149Z,7.50
2022-11-16T16:27:57.046Z,7.50
2022-11-16T16:30:27.795Z,7.50
2022-11-16T16:32:54.612Z,7.50
2022-11-16T16:35:24.873Z,7.40
2022-11-16T16:37:56.786Z,7.50
2022-11-16T16:40:23.937Z,7.40
2022-11-16T16:42:54.850Z,7.40
2022-11-16T16:45:28.501Z,7.40
2022-11-16T16:47:55.255Z,7.40
2022-11-16T16:50:21.928Z,7.40
2022-11-16T16:52:53.294Z,7.40
2022-11-16T16:55:20.079Z,7.40
2022-11-16T16:57:46.876Z,7.40
2022-11-16T17:00:14.131Z,7.50
2022-11-16T17:02:40.875Z,7.50
2022-11-16T17:05:10.071Z,7.40
2022-11-16T17:07:38.897Z,7.40
2022-11-16T17:10:06.246Z,7.40
2022-11-16T17:12:33.176Z,7.40
2022-11-16T17:15:03.194Z,7.40
2022-11-16T17:17:32.880Z,7.40
2022-11-16T17:20:02.175Z,7.40
2022-11-16T17:22:28.911Z,7.40
2022-11-16T17:24:57.986Z,7.40
2022-11-16T17:27:24.779Z,7.40
2022-11-16T17:29:51.442Z,7.40
2022-11-16T17:32:18.176Z,7.40
2022-11-16T17:34:44.941Z,7.40
2022-11-16T17:37:11.814Z,7.50
2022-11-16T17:39:38.570Z,7.50
2022-11-16T17:42:07.645Z,7.50
2022-11-16T17:44:35.802Z,7.50
2022-11-16T17:47:02.564Z,7.60
2022-11-16T17:49:29.459Z,7.60
2022-11-16T17:51:59.328Z,7.60
2022-11-16T17:54:31.202Z,7.60
2022-11-16T17:56:57.927Z,7.60
2022-11-16T17:59:29.238Z,7.60
2022-11-16T18:01:59.063Z,7.60
2022-11-16T18:04:25.787Z,7.60
2022-11-16T18:06:52.757Z,7.60
2022-11-16T18:09:19.519Z,7.60
2022-11-16T18:11:46.347Z,7.50
2022-11-16T18:14:13.115Z,7.60
2022-11-16T18:16:43.174Z,7.60
2022-11-16T18:19:14.635Z,7.50
2022-11-16T18:21:41.854Z,7.50
2022-11-16T18:24:08.791Z,7.50
2022-11-16T18:26:35.980Z,7.50
2022-11-16T18:29:02.937Z,7.50
2022-11-16T18:31:32.785Z,7.60
2022-11-16T18:34:00.184Z,7.50
2022-11-16T18:36:26.971Z,7.60
2022-11-16T18:38:53.844Z,7.50
2022-11-16T18:41:21.692Z,7.50
2022-11-16T18:43:55.564Z,7.50
2022-11-16T18:46:24.314Z,7.40
2022-11-16T18:48:53.450Z,7.40
2022-11-16T18:51:21.016Z,7.40
2022-11-16T18:53:47.863Z,7.30
2022-11-16T18:56:14.882Z,7.30
2022-11-16T18:58:51.321Z,7.30
2022-11-16T19:01:23.020Z,7.30
2022-11-16T19:03:50.685Z,7.40
2022-11-16T19:06:17.969Z,7.30
2022-11-16T19:08:47.816Z,7.30
2022-11-16T19:11:21.547Z,7.40
2022-11-16T19:13:51.608Z,7.40
2022-11-16T19:16:20.525Z,7.30
2022-11-16T19:18:47.292Z,7.30
2022-11-16T19:21:15.127Z,7.30
2022-11-16T19:23:49.411Z,7.30
2022-11-16T19:26:17.198Z,7.30
2022-11-16T19:28:45.029Z,7.40
2022-11-16T19:31:13.215Z,7.30
2022-11-16T19:33:43.234Z,7.30
2022-11-16T19:36:11.653Z,7.30
2022-11-16T19:38:39.092Z,7.30
2022-11-16T19:41:06.671Z,7.30
2022-11-16T19:43:34.051Z,7.30
2022-11-16T19:46:01.875Z,7.30
2022-11-16T19:48:29.516Z,7.30
2022-11-16T19:50:56.278Z,7.20
2022-11-16T19:53:23.078Z,7.30
2022-11-16T19:55:53.746Z,7.30
2022-11-16T19:58:20.707Z,7.30
2022-11-16T20:00:47.574Z,7.30
2022-11-16T20:03:14.543Z,7.30
2022-11-16T20:05:41.341Z,7.30
2022-11-16T20:08:10.421Z,7.30
2022-11-16T20:10:39.698Z,7.30
2022-11-16T20:13:08.557Z,7.30
2022-11-16T20:15:35.455Z,7.30
2022-11-16T20:18:05.442Z,7.30
2022-11-16T20:20:32.385Z,7.20
2022-11-16T20:22:59.312Z,7.30
2022-11-16T20:25:26.111Z,7.20
2022-11-16T20:27:52.942Z,7.20
2022-11-16T20:30:19.804Z,7.20
2022-11-16T20:32:46.772Z,7.30
2022-11-16T20:35:18.773Z,7.30
2022-11-16T20:37:46.042Z,7.30
2022-11-16T20:40:13.190Z,7.30
2022-11-16T20:42:40.012Z,7.30
2022-11-16T20:45:07.206Z,7.20
2022-11-16T20:47:34.036Z,7.20
2022-11-16T20:50:05.719Z,7.20
2022-11-16T20:52:33.608Z,7.20
2022-11-16T20:55:00.578Z,7.20
2022-11-16T20:57:27.363Z,7.20
2022-11-16T20:59:54.240Z,7.20
2022-11-16T21:02:21.130Z,7.20
2022-11-16T21:04:47.956Z,7.10
2022-11-16T21:07:14.876Z,7.10
2022-11-16T21:10:00.368Z,7.20
2022-11-16T21:12:45.949Z,7.10
2022-11-16T21:15:13.150Z,7.10
2022-11-16T21:17:39.918Z,7.10
2022-11-16T21:22:55.983Z,7.10
2022-11-16T21:25:22.889Z,7.00
2022-11-16T21:27:49.779Z,7.00
2022-11-16T21:30:16.794Z,7.00
2022-11-16T21:32:43.740Z,7.00
2022-11-16T21:35:10.461Z,7.00
2022-11-16T21:37:37.299Z,7.00
2022-11-16T21:40:04.282Z,7.00
2022-11-16T21:42:31.240Z,7.00
2022-11-16T21:45:00.415Z,7.00
2022-11-16T21:47:30.272Z,7.00
2022-11-16T21:52:48.870Z,6.90
2022-11-16T21:55:18.127Z,6.90
2022-11-16T21:57:44.839Z,6.90
2022-11-16T22:00:11.851Z,6.90
2022-11-16T22:02:38.534Z,6.80
2022-11-16T22:05:24.160Z,6.80
2022-11-16T22:07:53.451Z,6.80
2022-11-16T22:10:20.386Z,6.70
2022-11-16T22:12:47.174Z,6.70
2022-11-16T22:15:13.970Z,6.70
2022-11-16T22:17:46.621Z,6.70
2022-11-16T22:20:13.344Z,6.70
2022-11-16T22:22:42.336Z,6.70
2022-11-16T22:25:09.768Z,6.60
2022-11-16T22:27:58.335Z,6.70
2022-11-16T22:30:23.780Z,6.70
2022-11-16T22:32:50.599Z,6.70
2022-11-16T22:35:17.386Z,6.70
2022-11-16T22:37:44.162Z,6.70
2022-11-16T22:40:16.392Z,6.60
2022-11-16T22:42:44.515Z,6.60
2022-11-16T22:45:12.038Z,6.60
2022-11-16T22:47:38.867Z,6.60
2022-11-16T22:50:05.906Z,6.50
2022-11-16T22:52:32.772Z,6.60
2022-11-16T22:54:59.831Z,6.50
2022-11-16T22:57:26.586Z,6.50
2022-11-16T22:59:55.425Z,6.50
2022-11-16T23:02:24.768Z,6.50
2022-11-16T23:04:51.535Z,6.50
2022-11-16T23:07:20.451Z,6.50
2022-11-16T23:09:47.302Z,6.50
2022-11-16T23:12:32.858Z,6.50
2022-11-16T23:15:21.046Z,6.50
2022-11-16T23:17:47.845Z,6.50
2022-11-16T23:20:35.883Z,6.50
2022-11-16T23:23:21.408Z,6.50
2022-11-16T23:26:06.918Z,6.40
2022-11-16T23:28:34.554Z,6.40
2022-11-16T23:31:03.656Z,6.40
2022-11-16T23:33:45.429Z,6.40
2022-11-16T23:36:15.076Z,6.30
2022-11-16T23:38:43.924Z,6.30
2022-11-16T23:41:29.394Z,6.30
2022-11-16T23:43:58.838Z,6.20
2022-11-16T23:46:26.604Z,6.10
2022-11-16T23:48:53.356Z,6.20
2022-11-16T23:51:20.195Z,6.20
2022-11-16T23:53:49.269Z,6.20
2022-11-16T23:56:16.207Z,6.10
2022-11-16T23:58:42.934Z,6.10
